ZSHBA FAGM-FALE
Flight info
| Callsign | ZSHBA |
|---|---|
| Flight time | 1h 17m |
| Altitude | 21000 |
| Route | HGV WRV GYV |
| Aircraft | BE60/L-SD/C |
Departure
| Time | 2026-05-07 17:40 |
|---|---|
| Airport | Rand Airport (FAGM) |
Arrival
| Time | 2026-05-07 18:57 |
|---|---|
| Airport | King Shaka International Airport (FALE) |
| Time | Latitude | Longitude | Altitude | Speed | Heading |
|---|---|---|---|---|---|
| 2026-05-07 17:13 | -26.24051 | 28.15183 | 5463 ft | 0 kts | 192° |
| 2026-05-07 17:31 | -26.24057 | 28.15179 | 5462 ft | 3 kts | 219° |
| 2026-05-07 17:31 | -26.24075 | 28.15158 | 5462 ft | 7 kts | 260° |
| 2026-05-07 17:31 | -26.24115 | 28.15144 | 5463 ft | 8 kts | 158° |
| 2026-05-07 17:31 | -26.24162 | 28.15185 | 5465 ft | 9 kts | 102° |
| 2026-05-07 17:32 | -26.24163 | 28.15265 | 5468 ft | 11 kts | 91° |
| 2026-05-07 17:32 | -26.24164 | 28.15361 | 5471 ft | 14 kts | 90° |
| 2026-05-07 17:32 | -26.24162 | 28.15479 | 5474 ft | 17 kts | 90° |
| 2026-05-07 17:32 | -26.24160 | 28.15617 | 5478 ft | 17 kts | 89° |
| 2026-05-07 17:33 | -26.24193 | 28.15703 | 5481 ft | 0 kts | 134° |
| 2026-05-07 17:38 | -26.24194 | 28.15703 | 5461 ft | 1 kts | 134° |
| 2026-05-07 17:38 | -26.24235 | 28.15743 | 5485 ft | 9 kts | 174° |
| 2026-05-07 17:38 | -26.24244 | 28.15706 | 5485 ft | 0 kts | 269° |
| 2026-05-07 17:39 | -26.24247 | 28.15455 | 5478 ft | 66 kts | 269° |
| 2026-05-07 17:39 | -26.24247 | 28.14761 | 5497 ft | 106 kts | 269° |
| 2026-05-07 17:39 | -26.24221 | 28.13925 | 5931 ft | 106 kts | 268° |
| 2026-05-07 17:40 | -26.24183 | 28.13117 | 6386 ft | 104 kts | 269° |
| 2026-05-07 17:40 | -26.24114 | 28.12280 | 6665 ft | 112 kts | 266° |
| 2026-05-07 17:40 | -26.24057 | 28.11378 | 6916 ft | 120 kts | 268° |
| 2026-05-07 17:40 | -26.23989 | 28.10440 | 7190 ft | 122 kts | 269° |
| 2026-05-07 17:41 | -26.23974 | 28.09527 | 7532 ft | 117 kts | 254° |
| 2026-05-07 17:41 | -26.24350 | 28.08746 | 7797 ft | 118 kts | 215° |
| 2026-05-07 17:41 | -26.25176 | 28.08727 | 8059 ft | 132 kts | 161° |
| 2026-05-07 17:41 | -26.25981 | 28.09262 | 8338 ft | 137 kts | 154° |
| 2026-05-07 17:42 | -26.26773 | 28.09877 | 8650 ft | 140 kts | 153° |
| 2026-05-07 17:42 | -26.27566 | 28.10535 | 8940 ft | 142 kts | 151° |
| 2026-05-07 17:42 | -26.28360 | 28.11207 | 9252 ft | 144 kts | 151° |
| 2026-05-07 17:42 | -26.29160 | 28.11891 | 9577 ft | 145 kts | 153° |
| 2026-05-07 17:43 | -26.29991 | 28.12526 | 9904 ft | 145 kts | 156° |
| 2026-05-07 17:43 | -26.30829 | 28.13133 | 10212 ft | 146 kts | 157° |
| 2026-05-07 17:43 | -26.31689 | 28.13742 | 10504 ft | 147 kts | 157° |
| 2026-05-07 17:43 | -26.32597 | 28.14202 | 10787 ft | 142 kts | 173° |
| 2026-05-07 17:44 | -26.33548 | 28.14531 | 11078 ft | 143 kts | 173° |
| 2026-05-07 17:44 | -26.34509 | 28.14865 | 11365 ft | 145 kts | 173° |
| 2026-05-07 17:44 | -26.35479 | 28.15202 | 11648 ft | 147 kts | 173° |
| 2026-05-07 17:44 | -26.36452 | 28.15568 | 11937 ft | 148 kts | 171° |
| 2026-05-07 17:45 | -26.37419 | 28.16013 | 12240 ft | 154 kts | 162° |
| 2026-05-07 17:45 | -26.38344 | 28.16610 | 12535 ft | 157 kts | 159° |
| 2026-05-07 17:45 | -26.39275 | 28.17264 | 12824 ft | 159 kts | 158° |
| 2026-05-07 17:45 | -26.40204 | 28.17942 | 13127 ft | 161 kts | 157° |
| 2026-05-07 17:46 | -26.41142 | 28.18634 | 13424 ft | 162 kts | 158° |
| 2026-05-07 17:46 | -26.42143 | 28.19085 | 13696 ft | 151 kts | 180° |
| 2026-05-07 17:46 | -26.43174 | 28.19362 | 13997 ft | 153 kts | 178° |
| 2026-05-07 17:46 | -26.44212 | 28.19660 | 14269 ft | 155 kts | 178° |
| 2026-05-07 17:47 | -26.45244 | 28.19986 | 14526 ft | 157 kts | 176° |
| 2026-05-07 17:47 | -26.46293 | 28.20353 | 14795 ft | 158 kts | 175° |
| 2026-05-07 17:47 | -26.47348 | 28.20714 | 15074 ft | 158 kts | 176° |
| 2026-05-07 17:47 | -26.48407 | 28.21066 | 15321 ft | 159 kts | 176° |
| 2026-05-07 17:48 | -26.49475 | 28.21425 | 15598 ft | 160 kts | 176° |
| 2026-05-07 17:48 | -26.50539 | 28.21793 | 15854 ft | 160 kts | 176° |
| 2026-05-07 17:48 | -26.51607 | 28.22155 | 16128 ft | 160 kts | 177° |
| 2026-05-07 17:48 | -26.52677 | 28.22518 | 16417 ft | 161 kts | 177° |
| 2026-05-07 17:49 | -26.53751 | 28.22882 | 16716 ft | 162 kts | 177° |
| 2026-05-07 17:49 | -26.54829 | 28.23248 | 17003 ft | 162 kts | 177° |
| 2026-05-07 17:49 | -26.55912 | 28.23618 | 17270 ft | 163 kts | 177° |
| 2026-05-07 17:49 | -26.56998 | 28.23991 | 17550 ft | 163 kts | 178° |
| 2026-05-07 17:50 | -26.58073 | 28.24357 | 17834 ft | 164 kts | 178° |
| 2026-05-07 17:50 | -26.59173 | 28.24728 | 18064 ft | 168 kts | 178° |
| 2026-05-07 17:50 | -26.60318 | 28.25114 | 18256 ft | 175 kts | 177° |
| 2026-05-07 17:50 | -26.61492 | 28.25521 | 18492 ft | 179 kts | 176° |
| 2026-05-07 17:51 | -26.62691 | 28.25933 | 18714 ft | 181 kts | 177° |
| 2026-05-07 17:51 | -26.63903 | 28.26344 | 18945 ft | 183 kts | 177° |
| 2026-05-07 17:51 | -26.65127 | 28.26762 | 19178 ft | 184 kts | 177° |
| 2026-05-07 17:51 | -26.66357 | 28.27183 | 19416 ft | 185 kts | 177° |
| 2026-05-07 17:52 | -26.67597 | 28.27606 | 19644 ft | 186 kts | 177° |
| 2026-05-07 17:52 | -26.68842 | 28.28030 | 19877 ft | 187 kts | 177° |
| 2026-05-07 17:52 | -26.70073 | 28.28460 | 20103 ft | 188 kts | 175° |
| 2026-05-07 17:52 | -26.71281 | 28.29151 | 20314 ft | 201 kts | 158° |
| 2026-05-07 17:53 | -26.72431 | 28.30074 | 20539 ft | 204 kts | 154° |
| 2026-05-07 17:53 | -26.73557 | 28.31049 | 20745 ft | 206 kts | 153° |
| 2026-05-07 17:53 | -26.74695 | 28.32052 | 20884 ft | 212 kts | 153° |
| 2026-05-07 17:53 | -26.75871 | 28.33087 | 21006 ft | 217 kts | 153° |
| 2026-05-07 17:54 | -26.77095 | 28.34075 | 21111 ft | 213 kts | 167° |
| 2026-05-07 17:54 | -26.78467 | 28.34706 | 21157 ft | 216 kts | 171° |
| 2026-05-07 17:54 | -26.79881 | 28.35390 | 21178 ft | 225 kts | 166° |
| 2026-05-07 17:54 | -26.81278 | 28.36170 | 21184 ft | 229 kts | 164° |
| 2026-05-07 17:55 | -26.82683 | 28.37057 | 21189 ft | 234 kts | 159° |
| 2026-05-07 17:55 | -26.84074 | 28.38022 | 21190 ft | 235 kts | 160° |
| 2026-05-07 17:55 | -26.85487 | 28.38956 | 21191 ft | 236 kts | 160° |
| 2026-05-07 17:55 | -26.86908 | 28.39903 | 21195 ft | 238 kts | 159° |
| 2026-05-07 17:56 | -26.88326 | 28.40866 | 21189 ft | 238 kts | 159° |
| 2026-05-07 17:56 | -26.89732 | 28.41808 | 21193 ft | 238 kts | 160° |
| 2026-05-07 17:56 | -26.91165 | 28.42770 | 21193 ft | 240 kts | 159° |
| 2026-05-07 17:56 | -26.92111 | 28.43409 | 21191 ft | 240 kts | 159° |
| 2026-05-07 17:57 | -26.93426 | 28.44607 | 21196 ft | 254 kts | 133° |
| 2026-05-07 17:57 | -26.94191 | 28.46427 | 21199 ft | 262 kts | 111° |
| 2026-05-07 17:57 | -26.94689 | 28.48399 | 21190 ft | 263 kts | 107° |
| 2026-05-07 17:57 | -26.95169 | 28.50381 | 21188 ft | 262 kts | 113° |
| 2026-05-07 17:58 | -26.96045 | 28.52135 | 21191 ft | 255 kts | 134° |
| 2026-05-07 17:58 | -26.97237 | 28.53537 | 21192 ft | 248 kts | 147° |
| 2026-05-07 17:58 | -26.98560 | 28.54781 | 21188 ft | 247 kts | 150° |
| 2026-05-07 17:58 | -26.99902 | 28.55978 | 21189 ft | 246 kts | 151° |
| 2026-05-07 17:59 | -27.01256 | 28.57160 | 21187 ft | 247 kts | 152° |
| 2026-05-07 17:59 | -27.02614 | 28.58338 | 21189 ft | 247 kts | 152° |
| 2026-05-07 17:59 | -27.03971 | 28.59514 | 21186 ft | 247 kts | 152° |
| 2026-05-07 17:59 | -27.05329 | 28.60695 | 21185 ft | 247 kts | 151° |
| 2026-05-07 18:00 | -27.06671 | 28.61910 | 21188 ft | 248 kts | 149° |
| 2026-05-07 18:00 | -27.08007 | 28.63134 | 21186 ft | 248 kts | 150° |
| 2026-05-07 18:00 | -27.09357 | 28.64359 | 21188 ft | 250 kts | 150° |
| 2026-05-07 18:00 | -27.10718 | 28.65584 | 21184 ft | 252 kts | 150° |
| 2026-05-07 18:01 | -27.12066 | 28.66811 | 21183 ft | 255 kts | 150° |
| 2026-05-07 18:01 | -27.13450 | 28.68079 | 21183 ft | 258 kts | 149° |
| 2026-05-07 18:01 | -27.14853 | 28.69364 | 21182 ft | 261 kts | 149° |
| 2026-05-07 18:01 | -27.16276 | 28.70654 | 21182 ft | 264 kts | 149° |
| 2026-05-07 18:02 | -27.19164 | 28.73292 | 21178 ft | 269 kts | 149° |
| 2026-05-07 18:02 | -27.20623 | 28.74622 | 21179 ft | 271 kts | 149° |
| 2026-05-07 18:02 | -27.22088 | 28.75961 | 21179 ft | 272 kts | 149° |
| 2026-05-07 18:03 | -27.23560 | 28.77305 | 21177 ft | 273 kts | 149° |
| 2026-05-07 18:03 | -27.25040 | 28.78658 | 21175 ft | 274 kts | 149° |
| 2026-05-07 18:03 | -27.26527 | 28.80016 | 21175 ft | 275 kts | 149° |
| 2026-05-07 18:03 | -27.27998 | 28.81362 | 21176 ft | 275 kts | 149° |
| 2026-05-07 18:04 | -27.29484 | 28.82721 | 21174 ft | 276 kts | 149° |
| 2026-05-07 18:04 | -27.30971 | 28.84080 | 21181 ft | 276 kts | 149° |
| 2026-05-07 18:04 | -27.32465 | 28.85450 | 21185 ft | 277 kts | 148° |
| 2026-05-07 18:04 | -27.33961 | 28.86818 | 21175 ft | 277 kts | 149° |
| 2026-05-07 18:05 | -27.35461 | 28.88186 | 21171 ft | 278 kts | 148° |
| 2026-05-07 18:05 | -27.36960 | 28.89563 | 21174 ft | 278 kts | 149° |
| 2026-05-07 18:05 | -27.38459 | 28.90936 | 21174 ft | 278 kts | 149° |
| 2026-05-07 18:05 | -27.39958 | 28.92310 | 21174 ft | 278 kts | 149° |
| 2026-05-07 18:06 | -27.41457 | 28.93682 | 21174 ft | 278 kts | 149° |
| 2026-05-07 18:06 | -27.42942 | 28.95042 | 21168 ft | 278 kts | 148° |
| 2026-05-07 18:06 | -27.44442 | 28.96420 | 21169 ft | 278 kts | 148° |
| 2026-05-07 18:06 | -27.45943 | 28.97796 | 21170 ft | 278 kts | 148° |
| 2026-05-07 18:07 | -27.47444 | 28.99173 | 21166 ft | 278 kts | 148° |
| 2026-05-07 18:07 | -27.48935 | 29.00563 | 21169 ft | 278 kts | 148° |
| 2026-05-07 18:07 | -27.50421 | 29.01972 | 21168 ft | 279 kts | 147° |
| 2026-05-07 18:07 | -27.51901 | 29.03385 | 21172 ft | 279 kts | 147° |
| 2026-05-07 18:08 | -27.53385 | 29.04807 | 21164 ft | 280 kts | 147° |
| 2026-05-07 18:08 | -27.54867 | 29.06229 | 21165 ft | 280 kts | 147° |
| 2026-05-07 18:08 | -27.56330 | 29.07636 | 21162 ft | 280 kts | 147° |
| 2026-05-07 18:08 | -27.57811 | 29.09062 | 21163 ft | 279 kts | 147° |
| 2026-05-07 18:09 | -27.59293 | 29.10490 | 21162 ft | 280 kts | 147° |
| 2026-05-07 18:09 | -27.60774 | 29.11917 | 21159 ft | 280 kts | 147° |
| 2026-05-07 18:09 | -27.62254 | 29.13343 | 21165 ft | 280 kts | 147° |
| 2026-05-07 18:09 | -27.63734 | 29.14769 | 21162 ft | 280 kts | 147° |
| 2026-05-07 18:10 | -27.65218 | 29.16202 | 21159 ft | 280 kts | 147° |
| 2026-05-07 18:10 | -27.66702 | 29.17635 | 21163 ft | 280 kts | 147° |
| 2026-05-07 18:10 | -27.68167 | 29.19051 | 21158 ft | 281 kts | 147° |
| 2026-05-07 18:10 | -27.69655 | 29.20488 | 21158 ft | 281 kts | 147° |
| 2026-05-07 18:11 | -27.71135 | 29.21920 | 21157 ft | 281 kts | 147° |
| 2026-05-07 18:11 | -27.72117 | 29.22871 | 21154 ft | 280 kts | 147° |
| 2026-05-07 18:11 | -27.74104 | 29.24793 | 21157 ft | 281 kts | 147° |
| 2026-05-07 18:11 | -27.75589 | 29.26231 | 21147 ft | 280 kts | 146° |
| 2026-05-07 18:12 | -27.77049 | 29.27643 | 21151 ft | 280 kts | 147° |
| 2026-05-07 18:12 | -27.78527 | 29.29077 | 21147 ft | 279 kts | 147° |
| 2026-05-07 18:12 | -27.80001 | 29.30507 | 21150 ft | 279 kts | 147° |
| 2026-05-07 18:12 | -27.81476 | 29.31938 | 21145 ft | 279 kts | 147° |
| 2026-05-07 18:13 | -27.82948 | 29.33369 | 21147 ft | 280 kts | 147° |
| 2026-05-07 18:13 | -27.84424 | 29.34805 | 21144 ft | 280 kts | 147° |
| 2026-05-07 18:13 | -27.85909 | 29.36248 | 21145 ft | 281 kts | 146° |
| 2026-05-07 18:13 | -27.87392 | 29.37691 | 21134 ft | 281 kts | 146° |
| 2026-05-07 18:14 | -27.88854 | 29.39114 | 21132 ft | 281 kts | 146° |
| 2026-05-07 18:14 | -27.90336 | 29.40557 | 21130 ft | 281 kts | 146° |
| 2026-05-07 18:14 | -27.91820 | 29.42001 | 21131 ft | 281 kts | 146° |
| 2026-05-07 18:14 | -27.93334 | 29.43379 | 21128 ft | 278 kts | 152° |
| 2026-05-07 18:15 | -27.94920 | 29.44621 | 21125 ft | 277 kts | 154° |
| 2026-05-07 18:15 | -27.96529 | 29.45826 | 21123 ft | 277 kts | 155° |
| 2026-05-07 18:15 | -27.98141 | 29.47016 | 21116 ft | 277 kts | 155° |
| 2026-05-07 18:15 | -27.99759 | 29.48202 | 21113 ft | 277 kts | 155° |
| 2026-05-07 18:16 | -28.01381 | 29.49389 | 21113 ft | 277 kts | 155° |
| 2026-05-07 18:16 | -28.03004 | 29.50575 | 21109 ft | 278 kts | 155° |
| 2026-05-07 18:16 | -28.04607 | 29.51747 | 21102 ft | 277 kts | 155° |
| 2026-05-07 18:16 | -28.06229 | 29.52934 | 21098 ft | 277 kts | 154° |
| 2026-05-07 18:17 | -28.07861 | 29.54081 | 21097 ft | 273 kts | 161° |
| 2026-05-07 18:17 | -28.09553 | 29.55070 | 21096 ft | 273 kts | 161° |
| 2026-05-07 18:17 | -28.11219 | 29.56136 | 21087 ft | 275 kts | 156° |
| 2026-05-07 18:17 | -28.12823 | 29.57334 | 21084 ft | 276 kts | 153° |
| 2026-05-07 18:18 | -28.14370 | 29.58585 | 21084 ft | 277 kts | 151° |
| 2026-05-07 18:18 | -28.15852 | 29.60018 | 21081 ft | 281 kts | 142° |
| 2026-05-07 18:18 | -28.17288 | 29.61533 | 21074 ft | 280 kts | 146° |
| 2026-05-07 18:18 | -28.18765 | 29.62982 | 21073 ft | 281 kts | 145° |
| 2026-05-07 18:19 | -28.20217 | 29.64467 | 21062 ft | 281 kts | 144° |
| 2026-05-07 18:19 | -28.21670 | 29.65938 | 21056 ft | 280 kts | 145° |
| 2026-05-07 18:19 | -28.23110 | 29.67383 | 21055 ft | 280 kts | 144° |
| 2026-05-07 18:19 | -28.24566 | 29.68864 | 21052 ft | 280 kts | 144° |
| 2026-05-07 18:20 | -28.26032 | 29.70345 | 21052 ft | 281 kts | 144° |
| 2026-05-07 18:20 | -28.27491 | 29.71820 | 21044 ft | 281 kts | 144° |
| 2026-05-07 18:20 | -28.28949 | 29.73299 | 21044 ft | 281 kts | 144° |
| 2026-05-07 18:20 | -28.30408 | 29.74776 | 21040 ft | 281 kts | 144° |
| 2026-05-07 18:21 | -28.31871 | 29.76257 | 21036 ft | 282 kts | 144° |
| 2026-05-07 18:21 | -28.33312 | 29.77720 | 21032 ft | 282 kts | 144° |
| 2026-05-07 18:21 | -28.34776 | 29.79203 | 21035 ft | 282 kts | 144° |
| 2026-05-07 18:21 | -28.36245 | 29.80692 | 21027 ft | 283 kts | 144° |
| 2026-05-07 18:22 | -28.37719 | 29.82187 | 21016 ft | 284 kts | 144° |
| 2026-05-07 18:22 | -28.38711 | 29.83195 | 21014 ft | 283 kts | 144° |
| 2026-05-07 18:22 | -28.40652 | 29.85163 | 21014 ft | 282 kts | 144° |
| 2026-05-07 18:22 | -28.42113 | 29.86646 | 21012 ft | 281 kts | 144° |
| 2026-05-07 18:23 | -28.43577 | 29.88133 | 21016 ft | 281 kts | 144° |
| 2026-05-07 18:23 | -28.45037 | 29.89616 | 21011 ft | 281 kts | 144° |
| 2026-05-07 18:23 | -28.46479 | 29.91081 | 21014 ft | 282 kts | 144° |
| 2026-05-07 18:23 | -28.47942 | 29.92568 | 21007 ft | 282 kts | 144° |
| 2026-05-07 18:24 | -28.49401 | 29.94053 | 21005 ft | 282 kts | 144° |
| 2026-05-07 18:24 | -28.50862 | 29.95537 | 21004 ft | 282 kts | 144° |
| 2026-05-07 18:24 | -28.52328 | 29.97026 | 21003 ft | 282 kts | 144° |
| 2026-05-07 18:24 | -28.53788 | 29.98514 | 21000 ft | 282 kts | 144° |
| 2026-05-07 18:25 | -28.55239 | 29.99988 | 20998 ft | 281 kts | 144° |
| 2026-05-07 18:25 | -28.56697 | 30.01474 | 20993 ft | 281 kts | 144° |
| 2026-05-07 18:25 | -28.58159 | 30.02961 | 20997 ft | 281 kts | 144° |
| 2026-05-07 18:25 | -28.59619 | 30.04449 | 20993 ft | 281 kts | 144° |
| 2026-05-07 18:26 | -28.61088 | 30.05944 | 20817 ft | 289 kts | 144° |
| 2026-05-07 18:26 | -28.62610 | 30.07493 | 20564 ft | 297 kts | 143° |
| 2026-05-07 18:26 | -28.64163 | 30.09082 | 20338 ft | 301 kts | 143° |
| 2026-05-07 18:26 | -28.65717 | 30.10664 | 20108 ft | 299 kts | 143° |
| 2026-05-07 18:27 | -28.67260 | 30.12238 | 19885 ft | 297 kts | 143° |
| 2026-05-07 18:27 | -28.68779 | 30.13788 | 19678 ft | 295 kts | 143° |
| 2026-05-07 18:27 | -28.70305 | 30.15345 | 19469 ft | 294 kts | 143° |
| 2026-05-07 18:27 | -28.71312 | 30.16374 | 19316 ft | 293 kts | 143° |
| 2026-05-07 18:28 | -28.73337 | 30.18439 | 19012 ft | 290 kts | 142° |
| 2026-05-07 18:28 | -28.74835 | 30.19972 | 18794 ft | 287 kts | 142° |
| 2026-05-07 18:28 | -28.76297 | 30.21465 | 18590 ft | 283 kts | 142° |
| 2026-05-07 18:28 | -28.77754 | 30.22953 | 18379 ft | 280 kts | 142° |
| 2026-05-07 18:29 | -28.79195 | 30.24426 | 18143 ft | 277 kts | 142° |
| 2026-05-07 18:29 | -28.80625 | 30.25890 | 17902 ft | 275 kts | 142° |
| 2026-05-07 18:29 | -28.82046 | 30.27341 | 17658 ft | 273 kts | 142° |
| 2026-05-07 18:29 | -28.83455 | 30.28784 | 17417 ft | 272 kts | 142° |
| 2026-05-07 18:30 | -28.84864 | 30.30225 | 17179 ft | 270 kts | 142° |
| 2026-05-07 18:30 | -28.86263 | 30.31659 | 16941 ft | 269 kts | 141° |
| 2026-05-07 18:30 | -28.87654 | 30.33080 | 16708 ft | 268 kts | 141° |
| 2026-05-07 18:30 | -28.89020 | 30.34481 | 16485 ft | 267 kts | 141° |
| 2026-05-07 18:31 | -28.90398 | 30.35892 | 16268 ft | 265 kts | 141° |
| 2026-05-07 18:31 | -28.91765 | 30.37296 | 16034 ft | 264 kts | 141° |
| 2026-05-07 18:31 | -28.93128 | 30.38689 | 15801 ft | 262 kts | 141° |
| 2026-05-07 18:31 | -28.94482 | 30.40078 | 15587 ft | 261 kts | 141° |
| 2026-05-07 18:32 | -28.95830 | 30.41461 | 15371 ft | 259 kts | 141° |
| 2026-05-07 18:32 | -28.97166 | 30.42832 | 15164 ft | 258 kts | 141° |
| 2026-05-07 18:32 | -28.98499 | 30.44198 | 14955 ft | 256 kts | 140° |
| 2026-05-07 18:32 | -28.99820 | 30.45556 | 14757 ft | 255 kts | 140° |
| 2026-05-07 18:33 | -29.01137 | 30.46906 | 14561 ft | 253 kts | 140° |
| 2026-05-07 18:33 | -29.02445 | 30.48250 | 14363 ft | 252 kts | 140° |
| 2026-05-07 18:33 | -29.03747 | 30.49587 | 14167 ft | 251 kts | 140° |
| 2026-05-07 18:33 | -29.05023 | 30.50899 | 13969 ft | 249 kts | 140° |
| 2026-05-07 18:34 | -29.06309 | 30.52220 | 13757 ft | 247 kts | 140° |
| 2026-05-07 18:34 | -29.07587 | 30.53532 | 13513 ft | 246 kts | 139° |
| 2026-05-07 18:34 | -29.08854 | 30.54838 | 13282 ft | 244 kts | 139° |
| 2026-05-07 18:34 | -29.10117 | 30.56134 | 13052 ft | 243 kts | 139° |
| 2026-05-07 18:35 | -29.11369 | 30.57423 | 12833 ft | 241 kts | 139° |
| 2026-05-07 18:35 | -29.12616 | 30.58695 | 12616 ft | 239 kts | 142° |
| 2026-05-07 18:35 | -29.14066 | 30.59589 | 12338 ft | 237 kts | 160° |
| 2026-05-07 18:35 | -29.15593 | 30.60237 | 12082 ft | 236 kts | 162° |
| 2026-05-07 18:36 | -29.17152 | 30.60845 | 11832 ft | 236 kts | 163° |
| 2026-05-07 18:36 | -29.18720 | 30.61435 | 11587 ft | 239 kts | 163° |
| 2026-05-07 18:36 | -29.20318 | 30.62024 | 11278 ft | 242 kts | 164° |
| 2026-05-07 18:36 | -29.21917 | 30.62608 | 10946 ft | 240 kts | 164° |
| 2026-05-07 18:37 | -29.23476 | 30.63177 | 10613 ft | 237 kts | 164° |
| 2026-05-07 18:37 | -29.25043 | 30.63748 | 10283 ft | 234 kts | 164° |
| 2026-05-07 18:37 | -29.26587 | 30.64311 | 9965 ft | 232 kts | 164° |
| 2026-05-07 18:37 | -29.28121 | 30.64873 | 9614 ft | 230 kts | 164° |
| 2026-05-07 18:38 | -29.29638 | 30.65431 | 9270 ft | 227 kts | 164° |
| 2026-05-07 18:38 | -29.31138 | 30.65985 | 8927 ft | 225 kts | 164° |
| 2026-05-07 18:38 | -29.32620 | 30.66536 | 8576 ft | 223 kts | 163° |
| 2026-05-07 18:38 | -29.34088 | 30.67083 | 8245 ft | 221 kts | 164° |
| 2026-05-07 18:39 | -29.35542 | 30.67630 | 7916 ft | 218 kts | 163° |
| 2026-05-07 18:39 | -29.36978 | 30.68172 | 7586 ft | 216 kts | 163° |
| 2026-05-07 18:39 | -29.38385 | 30.68708 | 7269 ft | 214 kts | 163° |
| 2026-05-07 18:39 | -29.39796 | 30.69250 | 6950 ft | 212 kts | 163° |
| 2026-05-07 18:40 | -29.41187 | 30.69790 | 6642 ft | 210 kts | 163° |
| 2026-05-07 18:40 | -29.42565 | 30.70329 | 6350 ft | 207 kts | 163° |
| 2026-05-07 18:40 | -29.43916 | 30.70860 | 6165 ft | 200 kts | 163° |
| 2026-05-07 18:40 | -29.45205 | 30.71370 | 6046 ft | 192 kts | 163° |
| 2026-05-07 18:41 | -29.46465 | 30.71876 | 5844 ft | 191 kts | 163° |
| 2026-05-07 18:41 | -29.47703 | 30.72368 | 5616 ft | 191 kts | 163° |
| 2026-05-07 18:41 | -29.48958 | 30.72863 | 5416 ft | 190 kts | 163° |
| 2026-05-07 18:41 | -29.50209 | 30.73352 | 5208 ft | 189 kts | 163° |
| 2026-05-07 18:42 | -29.51443 | 30.73833 | 5094 ft | 184 kts | 163° |
| 2026-05-07 18:42 | -29.52638 | 30.74299 | 4980 ft | 180 kts | 163° |
| 2026-05-07 18:42 | -29.53822 | 30.74758 | 4848 ft | 179 kts | 163° |
| 2026-05-07 18:42 | -29.54983 | 30.75207 | 4708 ft | 178 kts | 163° |
| 2026-05-07 18:43 | -29.56162 | 30.75663 | 4557 ft | 178 kts | 163° |
| 2026-05-07 18:43 | -29.57337 | 30.76113 | 4411 ft | 178 kts | 163° |
| 2026-05-07 18:43 | -29.58511 | 30.76564 | 4280 ft | 177 kts | 163° |
| 2026-05-07 18:43 | -29.59688 | 30.77012 | 4130 ft | 178 kts | 163° |
| 2026-05-07 18:44 | -29.60845 | 30.77451 | 4054 ft | 175 kts | 163° |
| 2026-05-07 18:44 | -29.61985 | 30.77883 | 4017 ft | 170 kts | 163° |
| 2026-05-07 18:44 | -29.62739 | 30.78171 | 4012 ft | 168 kts | 163° |
| 2026-05-07 18:44 | -29.63826 | 30.78586 | 4011 ft | 166 kts | 163° |
| 2026-05-07 18:45 | -29.65281 | 30.79147 | 4000 ft | 164 kts | 163° |
| 2026-05-07 18:45 | -29.65995 | 30.79419 | 3989 ft | 163 kts | 163° |
| 2026-05-07 18:45 | -29.67061 | 30.79833 | 3988 ft | 161 kts | 163° |
| 2026-05-07 18:45 | -29.68118 | 30.80245 | 3966 ft | 161 kts | 163° |
| 2026-05-07 18:46 | -29.69202 | 30.80669 | 3829 ft | 168 kts | 163° |
| 2026-05-07 18:46 | -29.70324 | 30.81108 | 3683 ft | 173 kts | 163° |
| 2026-05-07 18:46 | -29.71472 | 30.81550 | 3535 ft | 175 kts | 163° |
| 2026-05-07 18:46 | -29.72636 | 30.81996 | 3420 ft | 176 kts | 163° |
| 2026-05-07 18:47 | -29.73803 | 30.82432 | 3267 ft | 177 kts | 162° |
| 2026-05-07 18:47 | -29.74983 | 30.82873 | 3119 ft | 178 kts | 163° |
| 2026-05-07 18:47 | -29.76041 | 30.83568 | 3052 ft | 176 kts | 139° |
| 2026-05-07 18:47 | -29.76908 | 30.84538 | 3018 ft | 172 kts | 136° |
| 2026-05-07 18:48 | -29.77734 | 30.85526 | 2991 ft | 169 kts | 135° |
| 2026-05-07 18:48 | -29.78528 | 30.86502 | 2985 ft | 166 kts | 134° |
| 2026-05-07 18:48 | -29.79308 | 30.87466 | 2985 ft | 164 kts | 134° |
| 2026-05-07 18:48 | -29.80077 | 30.88424 | 2982 ft | 162 kts | 134° |
| 2026-05-07 18:49 | -29.80790 | 30.89427 | 2981 ft | 162 kts | 116° |
| 2026-05-07 18:49 | -29.80836 | 30.90694 | 2982 ft | 163 kts | 72° |
| 2026-05-07 18:49 | -29.80417 | 30.91895 | 2980 ft | 163 kts | 66° |
| 2026-05-07 18:49 | -29.79939 | 30.93084 | 2976 ft | 163 kts | 65° |
| 2026-05-07 18:50 | -29.79452 | 30.94258 | 2971 ft | 162 kts | 65° |
| 2026-05-07 18:50 | -29.78955 | 30.95419 | 2979 ft | 161 kts | 64° |
| 2026-05-07 18:50 | -29.78454 | 30.96575 | 2978 ft | 161 kts | 64° |
| 2026-05-07 18:50 | -29.77831 | 30.97635 | 2964 ft | 158 kts | 42° |
| 2026-05-07 18:51 | -29.77009 | 30.98301 | 2942 ft | 138 kts | 31° |
| 2026-05-07 18:51 | -29.76167 | 30.98789 | 2802 ft | 134 kts | 27° |
| 2026-05-07 18:51 | -29.75396 | 30.99348 | 2745 ft | 127 kts | 35° |
| 2026-05-07 18:51 | -29.74704 | 30.99950 | 2709 ft | 122 kts | 40° |
| 2026-05-07 18:52 | -29.74074 | 31.00567 | 2713 ft | 113 kts | 40° |
| 2026-05-07 18:52 | -29.73481 | 31.01165 | 2704 ft | 116 kts | 41° |
| 2026-05-07 18:52 | -29.72820 | 31.01739 | 2674 ft | 121 kts | 34° |
| 2026-05-07 18:52 | -29.72143 | 31.02299 | 2705 ft | 117 kts | 37° |
| 2026-05-07 18:53 | -29.71482 | 31.02853 | 2636 ft | 121 kts | 37° |
| 2026-05-07 18:53 | -29.70811 | 31.03444 | 2516 ft | 121 kts | 40° |
| 2026-05-07 18:53 | -29.70157 | 31.04072 | 2363 ft | 123 kts | 38° |
| 2026-05-07 18:53 | -29.69467 | 31.04661 | 2194 ft | 123 kts | 36° |
| 2026-05-07 18:54 | -29.68767 | 31.05233 | 1980 ft | 124 kts | 38° |
| 2026-05-07 18:54 | -29.68107 | 31.05874 | 1752 ft | 123 kts | 40° |
| 2026-05-07 18:54 | -29.67424 | 31.06471 | 1514 ft | 123 kts | 36° |
| 2026-05-07 18:54 | -29.66737 | 31.07014 | 1347 ft | 120 kts | 34° |
| 2026-05-07 18:55 | -29.66084 | 31.07602 | 1188 ft | 118 kts | 42° |
| 2026-05-07 18:55 | -29.65442 | 31.08188 | 1040 ft | 118 kts | 36° |
| 2026-05-07 18:55 | -29.64785 | 31.08745 | 907 ft | 116 kts | 40° |
| 2026-05-07 18:55 | -29.64153 | 31.09315 | 797 ft | 115 kts | 39° |
| 2026-05-07 18:56 | -29.63530 | 31.09882 | 622 ft | 111 kts | 39° |
| 2026-05-07 18:56 | -29.62945 | 31.10404 | 448 ft | 102 kts | 38° |
| 2026-05-07 18:56 | -29.62412 | 31.10858 | 294 ft | 83 kts | 38° |
| 2026-05-07 18:56 | -29.62038 | 31.11188 | 292 ft | 55 kts | 37° |
| 2026-05-07 18:57 | -29.61777 | 31.11413 | 292 ft | 40 kts | 37° |
| 2026-05-07 18:57 | -29.61585 | 31.11580 | 294 ft | 32 kts | 37° |
| 2026-05-07 18:57 | -29.61408 | 31.11734 | 297 ft | 29 kts | 36° |
| 2026-05-07 18:57 | -29.61327 | 31.11739 | 297 ft | 14 kts | 268° |
| 2026-05-07 18:58 | -29.61358 | 31.11626 | 297 ft | 12 kts | 251° |
| 2026-05-07 18:58 | -29.61354 | 31.11561 | 296 ft | 0 kts | 308° |
| 2026-05-07 18:59 | -29.61352 | 31.11559 | 298 ft | 2 kts | 309° |
| 2026-05-07 18:59 | -29.61326 | 31.11521 | 298 ft | 10 kts | 307° |
| 2026-05-07 19:00 | -29.61267 | 31.11433 | 296 ft | 16 kts | 306° |
| 2026-05-07 19:00 | -29.61210 | 31.11345 | 296 ft | 12 kts | 307° |
| 2026-05-07 19:00 | -29.61159 | 31.11268 | 296 ft | 13 kts | 308° |
| 2026-05-07 19:00 | -29.61085 | 31.11256 | 298 ft | 13 kts | 36° |
| 2026-05-07 19:01 | -29.61020 | 31.11317 | 299 ft | 8 kts | 57° |
| 2026-05-07 19:01 | -29.61021 | 31.11348 | 298 ft | 0 kts | 112° |
| 2026-05-07 19:01 | -29.61011 | 31.11355 | 297 ft | 6 kts | 355° |
| 2026-05-07 19:01 | -29.60977 | 31.11377 | 297 ft | 6 kts | 36° |
| 2026-05-07 19:02 | -29.60933 | 31.11415 | 297 ft | 9 kts | 38° |
| 2026-05-07 19:02 | -29.60915 | 31.11431 | 297 ft | 0 kts | 37° |